Time,TemperatureF,DewpointF,PressureIn,WindDirection,WindDirectionDegrees,WindSpeedMPH,WindSpeedGustMPH,Humidity,HourlyPrecipIn,Conditions,Clouds,dailyrainin,SolarRadiationWatts/m^2,SoftwareType,DateUTC
2013-02-05 00:00:00,38.3,24.8,30.04,NNE,29,0.0,8.0,58,0.00,,SCT,0.00,0.00,VWS V14.01,2013-02-05 05:00:00,
2013-02-05 00:05:00,37.9,24.9,30.03,NW,313,0.0,8.0,59,0.00,,SCT,0.00,0.00,VWS V14.01,2013-02-05 05:05:00,
2013-02-05 00:10:00,37.7,24.7,30.03,NNW,336,3.0,8.0,59,0.00,,SCT,0.00,0.00,VWS V14.01,2013-02-05 05:10:00,
2013-02-05 00:15:00,37.8,24.8,30.03,North,360,8.0,10.0,59,0.00,,SCT,0.00,0.00,VWS V14.01,2013-02-05 05:15:00,
2013-02-05 00:20:00,38.0,25.0,30.03,NE,34,9.0,10.0,59,0.00,,SCT,0.00,0.00,VWS V14.01,2013-02-05 05:20:00,
2013-02-05 00:25:00,38.0,25.0,30.03,NNE,22,8.0,12.0,59,0.00,,SCT,0.00,0.00,VWS V14.01,2013-02-05 05:25:00,
2013-02-05 00:30:00,38.3,25.2,30.03,NE,38,3.0,12.0,59,0.00,,SCT,0.00,0.00,VWS V14.01,2013-02-05 05:30:00,
2013-02-05 00:35:00,38.5,25.0,30.03,NNE,32,2.0,12.0,58,0.00,,SCT,0.00,0.00,VWS V14.01,2013-02-05 05:35:00,
2013-02-05 00:40:00,38.3,25.2,30.03,North,11,0.0,12.0,59,0.00,,SCT,0.00,0.00,VWS V14.01,2013-02-05 05:40:00,
2013-02-05 00:45:00,37.8,25.2,30.03,NNE,33,4.0,12.0,60,0.00,,SCT,0.00,0.00,VWS V14.01,2013-02-05 05:45:00,
2013-02-05 00:50:00,38.0,25.4,30.03,NNE,32,0.0,12.0,60,0.00,,SCT,0.00,0.00,VWS V14.01,2013-02-05 05:50:00,
2013-02-05 00:55:00,37.5,25.3,30.03,NNE,32,0.0,0.0,61,0.00,,SCT,0.00,0.00,VWS V14.01,2013-02-05 05:55:00,
2013-02-05 01:00:00,36.7,24.9,30.03,South,186,1.0,5.0,62,0.00,,SCT,0.00,0.00,VWS V14.01,2013-02-05 06:00:00,
2013-02-05 01:05:00,35.8,24.8,30.03,South,188,1.0,5.0,64,0.00,,SCT,0.00,0.00,VWS V14.01,2013-02-05 06:05:00,
2013-02-05 01:10:00,35.3,24.7,30.03,South,186,5.0,6.0,65,0.00,,SCT,0.00,0.00,VWS V14.01,2013-02-05 06:10:00,
2013-02-05 01:15:00,35.3,24.7,30.02,South,188,1.0,6.0,65,0.00,,SCT,0.00,0.00,VWS V14.01,2013-02-05 06:15:00,
2013-02-05 01:20:00,34.7,24.9,30.02,SSW,207,0.0,6.0,67,0.00,,SCT,0.00,0.00,VWS V14.01,2013-02-05 06:20:00,
2013-02-05 01:25:00,34.7,24.9,30.02,SSW,207,0.0,6.0,67,0.00,,SCT,0.00,0.00,VWS V14.01,2013-02-05 06:25:00,
2013-02-05 01:30:00,35.1,25.3,30.02,SSW,211,0.0,6.0,67,0.00,,SCT,0.00,0.00,VWS V14.01,2013-02-05 06:30:00,
2013-02-05 01:35:00,35.6,25.7,30.02,WSW,245,0.0,6.0,67,0.00,,SCT,0.00,0.00,VWS V14.01,2013-02-05 06:35:00,
2013-02-05 01:40:00,35.8,25.2,30.02,WSW,245,0.0,6.0,65,0.00,,SCT,0.00,0.00,VWS V14.01,2013-02-05 06:40:00,
2013-02-05 01:45:00,35.3,25.1,30.02,SSW,204,3.0,6.0,66,0.00,,SCT,0.00,0.00,VWS V14.01,2013-02-05 06:45:00,
2013-02-05 01:50:00,34.8,25.3,30.02,SSW,207,4.0,6.0,68,0.00,,SCT,0.00,0.00,VWS V14.01,2013-02-05 06:50:00,
2013-02-05 01:55:00,34.4,25.3,30.02,SSW,202,3.0,4.0,69,0.00,,SCT,0.00,0.00,VWS V14.01,2013-02-05 06:55:00,
2013-02-05 02:00:00,34.4,25.3,30.02,SSW,206,4.0,4.0,69,0.00,,SCT,0.00,0.00,VWS V14.01,2013-02-05 07:00:00,
2013-02-05 02:05:00,34.4,25.3,30.02,SSW,203,1.0,5.0,69,0.00,,SCT,0.00,0.00,VWS V14.01,2013-02-05 07:05:00,
2013-02-05 02:10:00,34.3,25.5,30.02,SSW,204,3.0,5.0,70,0.00,,SCT,0.00,0.00,VWS V14.01,2013-02-05 07:10:00,
2013-02-05 03:00:00,35.6,26.1,30.02,North,360,0.0,5.0,68,0.00,,SCT,0.00,0.00,VWS V14.01,2013-02-05 08:00:00,
2013-02-05 04:00:00,37.4,26.7,30.00,SSW,205,4.0,10.0,65,0.00,,SCT,0.00,0.00,VWS V14.01,2013-02-05 09:00:00,
2013-02-05 05:00:00,39.9,28.7,30.00,NNE,21,3.0,11.0,64,0.00,,SCT,0.00,0.00,VWS V14.01,2013-02-05 10:00:00,
2013-02-05 05:09:00,39.3,28.5,30.00,NNE,26,2.0,7.0,65,0.00,,SCT,0.00,0.00,VWS V14.01,2013-02-05 10:09:00,
2013-02-05 06:00:00,40.9,28.9,30.00,NNE,32,2.0,16.0,62,0.00,,SCT,0.00,0.00,VWS V14.01,2013-02-05 11:00:00,
2013-02-05 07:00:00,40.0,29.6,30.02,North,5,6.0,15.0,66,0.00,,SCT,0.00,0.00,VWS V14.01,2013-02-05 12:00:00,
2013-02-05 08:00:00,40.5,29.7,30.02,NE,41,0.0,13.0,65,0.00,,SCT,0.00,21.00,VWS V14.01,2013-02-05 13:00:00,
2013-02-05 09:00:00,42.7,31.8,30.04,NNE,26,2.0,6.0,65,0.00,,SCT,0.00,163.00,VWS V14.01,2013-02-05 14:00:00,
2013-02-05 10:00:00,42.0,31.9,30.04,North,351,0.0,10.0,67,0.00,,SCT,0.00,77.00,VWS V14.01,2013-02-05 15:00:00,
2013-02-05 11:00:00,47.2,32.8,30.04,NNE,23,4.0,12.0,57,0.01,,SCT,0.01,162.00,VWS V14.01,2013-02-05 16:00:00,
2013-02-05 12:00:00,51.0,33.0,30.03,North,5,13.0,22.0,50,0.02,,SCT,0.02,418.00,VWS V14.01,2013-02-05 17:00:00,
2013-02-05 13:00:00,54.5,35.2,29.98,NNW,348,8.0,19.0,48,0.02,,SCT,0.03,596.00,VWS V14.01,2013-02-05 18:00:00,
2013-02-05 14:00:00,56.3,35.8,29.97,NNE,13,3.0,21.0,46,0.01,,SCT,0.03,236.00,VWS V14.01,2013-02-05 19:00:00,
2013-02-05 14:33:00,56.2,34.6,29.96,East,96,8.0,23.0,44,0.00,,SCT,0.03,176.00,VWS V14.01,2013-02-05 19:33:00,
2013-02-05 14:38:00,56.1,34.5,29.96,East,90,15.0,25.0,44,0.00,,SCT,0.03,171.00,VWS V14.01,2013-02-05 19:38:00,
2013-02-05 14:43:00,56.1,35.1,29.96,NE,51,13.0,25.0,45,0.00,,SCT,0.03,169.00,VWS V14.01,2013-02-05 19:43:00,
2013-02-05 14:48:00,56.2,34.6,29.96,NNE,32,20.0,28.0,44,0.00,,SCT,0.03,272.00,VWS V14.01,2013-02-05 19:48:00,
2013-02-05 14:53:00,56.4,34.2,29.96,NE,35,17.0,28.0,43,0.00,,SCT,0.03,221.00,VWS V14.01,2013-02-05 19:53:00,
2013-02-05 14:58:00,56.6,33.8,29.96,NE,39,19.0,23.0,42,0.00,,SCT,0.03,237.00,VWS V14.01,2013-02-05 19:58:00,
2013-02-05 15:00:00,56.4,34.2,29.96,NNE,31,14.0,28.0,43,0.00,,SCT,0.03,221.00,VWS V14.01,2013-02-05 20:00:00,
2013-02-05 15:03:00,56.7,33.9,29.96,NE,36,16.0,23.0,42,0.00,,SCT,0.03,197.00,VWS V14.01,2013-02-05 20:03:00,
2013-02-05 15:08:00,56.6,33.8,29.96,ENE,76,20.0,24.0,42,0.00,,SCT,0.03,169.00,VWS V14.01,2013-02-05 20:08:00,
2013-02-05 15:13:00,56.5,33.7,29.96,ENE,66,13.0,26.0,42,0.00,,SCT,0.03,165.00,VWS V14.01,2013-02-05 20:13:00,
2013-02-05 15:18:00,56.4,33.6,29.96,NE,41,13.0,26.0,42,0.00,,SCT,0.03,155.00,VWS V14.01,2013-02-05 20:18:00,
2013-02-05 15:23:00,56.3,33.5,29.96,ENE,69,14.0,26.0,42,0.00,,SCT,0.03,146.00,VWS V14.01,2013-02-05 20:23:00,
2013-02-05 15:28:00,56.1,33.9,29.97,ENE,65,14.0,26.0,43,0.00,,SCT,0.03,135.00,VWS V14.01,2013-02-05 20:28:00,
2013-02-05 15:33:00,56.0,33.8,29.97,NE,46,17.0,26.0,43,0.00,,SCT,0.03,142.00,VWS V14.01,2013-02-05 20:33:00,
2013-02-05 15:38:00,56.0,33.8,29.97,NE,46,17.0,26.0,43,0.00,,SCT,0.03,142.00,VWS V14.01,2013-02-05 20:38:00,
2013-02-05 15:43:00,55.8,34.2,29.97,NE,35,20.0,26.0,44,0.00,,SCT,0.03,125.00,VWS V14.01,2013-02-05 20:43:00,
2013-02-05 15:48:00,55.7,34.7,29.97,ENE,61,4.0,26.0,45,0.00,,SCT,0.03,123.00,VWS V14.01,2013-02-05 20:48:00,
2013-02-05 15:53:00,55.8,34.8,29.97,NE,51,13.0,26.0,45,0.00,,SCT,0.03,127.00,VWS V14.01,2013-02-05 20:53:00,
2013-02-05 15:58:00,55.7,34.7,29.97,NE,51,10.0,18.0,45,0.00,,SCT,0.03,114.00,VWS V14.01,2013-02-05 20:58:00,
2013-02-05 16:00:00,55.7,34.7,29.97,NE,53,11.0,26.0,45,0.00,,SCT,0.03,127.00,VWS V14.01,2013-02-05 21:00:00,
2013-02-05 16:03:00,55.5,34.5,29.98,NE,55,10.0,19.0,45,0.00,,SCT,0.03,109.00,VWS V14.01,2013-02-05 21:03:00,
2013-02-05 16:08:00,55.4,35.0,29.98,ENE,61,15.0,21.0,46,0.00,,SCT,0.03,98.00,VWS V14.01,2013-02-05 21:08:00,
2013-02-05 16:13:00,55.3,34.9,29.98,ENE,72,6.0,23.0,46,0.00,,SCT,0.03,93.00,VWS V14.01,2013-02-05 21:13:00,
2013-02-05 16:18:00,55.1,35.2,29.98,NE,43,17.0,23.0,47,0.00,,SCT,0.03,88.00,VWS V14.01,2013-02-05 21:18:00,
2013-02-05 16:23:00,55.0,35.2,29.98,NE,44,17.0,24.0,47,0.00,,SCT,0.03,83.00,VWS V14.01,2013-02-05 21:23:00,
2013-02-05 16:28:00,55.0,34.6,29.98,NE,52,17.0,24.0,46,0.00,,SCT,0.03,77.00,VWS V14.01,2013-02-05 21:28:00,
2013-02-05 16:33:00,54.9,35.1,29.98,East,81,8.0,24.0,47,0.00,,SCT,0.03,67.00,VWS V14.01,2013-02-05 21:33:00,
2013-02-05 16:38:00,54.8,34.4,29.98,ENE,68,10.0,24.0,46,0.00,,SCT,0.03,56.00,VWS V14.01,2013-02-05 21:38:00,
2013-02-05 16:43:00,54.8,34.4,29.98,ENE,75,11.0,24.0,46,0.00,,SCT,0.03,46.00,VWS V14.01,2013-02-05 21:43:00,
2013-02-05 16:48:00,54.8,34.4,29.98,ENE,71,10.0,24.0,46,0.00,,SCT,0.03,37.00,VWS V14.01,2013-02-05 21:48:00,
2013-02-05 16:53:00,54.7,34.3,29.98,ENE,57,10.0,24.0,46,0.00,,SCT,0.03,32.00,VWS V14.01,2013-02-05 21:53:00,
2013-02-05 16:58:00,54.6,34.2,29.98,NE,42,7.0,11.0,46,0.00,,SCT,0.03,30.00,VWS V14.01,2013-02-05 21:58:00,
2013-02-05 17:00:00,54.7,34.3,29.98,NE,51,11.0,24.0,46,0.00,,SCT,0.03,32.00,VWS V14.01,2013-02-05 22:00:00,
2013-02-05 17:03:00,54.5,34.2,29.98,ENE,76,13.0,15.0,46,0.00,,SCT,0.03,28.00,VWS V14.01,2013-02-05 22:03:00,
2013-02-05 17:08:00,54.5,34.2,29.98,NE,43,10.0,19.0,46,0.00,,SCT,0.03,23.00,VWS V14.01,2013-02-05 22:08:00,
2013-02-05 17:13:00,54.4,34.1,29.98,NE,55,7.0,19.0,46,0.00,,SCT,0.03,14.00,VWS V14.01,2013-02-05 22:13:00,
2013-02-05 17:18:00,54.3,34.5,29.98,ENE,57,6.0,19.0,47,0.00,,SCT,0.03,12.00,VWS V14.01,2013-02-05 22:18:00,
2013-02-05 17:23:00,54.2,34.4,29.98,ENE,61,7.0,19.0,47,0.00,,SCT,0.03,9.00,VWS V14.01,2013-02-05 22:23:00,
2013-02-05 17:28:00,54.1,34.3,29.98,ENE,71,12.0,19.0,47,0.00,,SCT,0.03,5.00,VWS V14.01,2013-02-05 22:28:00,
2013-02-05 17:34:00,54.1,34.3,29.99,NE,51,6.0,19.0,47,0.00,,SCT,0.03,0.00,VWS V14.01,2013-02-05 22:34:00,
2013-02-05 17:39:00,54.1,34.3,29.99,NE,49,13.0,19.0,47,0.00,,SCT,0.03,0.00,VWS V14.01,2013-02-05 22:39:00,
2013-02-05 17:44:00,54.1,34.3,29.99,ENE,78,12.0,19.0,47,0.00,,SCT,0.03,0.00,VWS V14.01,2013-02-05 22:44:00,
2013-02-05 17:48:00,54.1,34.3,29.99,ENE,75,17.0,19.0,47,0.00,,SCT,0.03,0.00,VWS V14.01,2013-02-05 22:48:00,
2013-02-05 17:53:00,54.1,34.3,29.99,NE,51,14.0,19.0,47,0.00,,SCT,0.03,0.00,VWS V14.01,2013-02-05 22:53:00,
2013-02-05 17:58:00,54.1,34.3,29.99,ENE,64,10.0,17.0,47,0.00,,SCT,0.03,0.00,VWS V14.01,2013-02-05 22:58:00,
2013-02-05 18:00:00,54.1,34.3,29.99,NE,44,10.0,19.0,47,0.00,,SCT,0.03,0.00,VWS V14.01,2013-02-05 23:00:00,
2013-02-05 18:03:00,54.0,34.2,29.99,NE,46,5.0,17.0,47,0.00,,SCT,0.03,0.00,VWS V14.01,2013-02-05 23:03:00,
2013-02-05 18:08:00,53.8,34.6,29.99,NE,54,6.0,17.0,48,0.00,,SCT,0.03,0.00,VWS V14.01,2013-02-05 23:08:00,
2013-02-05 18:13:00,53.6,34.4,29.99,NE,37,7.0,17.0,48,0.00,,SCT,0.03,0.00,VWS V14.01,2013-02-05 23:13:00,
2013-02-05 18:18:00,53.6,34.4,29.99,NE,46,8.0,17.0,48,0.00,,SCT,0.03,0.00,VWS V14.01,2013-02-05 23:18:00,
2013-02-05 18:23:00,53.5,34.8,29.99,NE,34,9.0,17.0,49,0.00,,SCT,0.03,0.00,VWS V14.01,2013-02-05 23:23:00,
2013-02-05 18:28:00,53.5,34.8,29.99,NE,42,13.0,17.0,49,0.00,,SCT,0.03,0.00,VWS V14.01,2013-02-05 23:28:00,
2013-02-05 18:33:00,53.5,34.8,30.00,NE,51,10.0,17.0,49,0.00,,SCT,0.03,0.00,VWS V14.01,2013-02-05 23:33:00,
2013-02-05 18:38:00,53.5,34.3,30.00,NNE,31,8.0,17.0,48,0.00,,SCT,0.03,0.00,VWS V14.01,2013-02-05 23:38:00,
2013-02-05 18:43:00,53.4,34.7,30.00,NNE,23,9.0,17.0,49,0.00,,SCT,0.03,0.00,VWS V14.01,2013-02-05 23:43:00,
2013-02-05 18:48:00,53.3,34.7,30.00,NNE,29,8.0,17.0,49,0.00,,SCT,0.03,0.00,VWS V14.01,2013-02-05 23:48:00,
2013-02-05 18:53:00,53.3,34.7,30.00,NE,46,6.0,17.0,49,0.00,,SCT,0.03,0.00,VWS V14.01,2013-02-05 23:53:00,
2013-02-05 18:58:00,53.3,34.7,30.00,NE,34,7.0,11.0,49,0.00,,SCT,0.03,0.00,VWS V14.01,2013-02-05 23:58:00,
2013-02-05 19:00:00,53.3,34.7,30.00,NE,40,10.0,17.0,49,0.00,,SCT,0.03,0.00,VWS V14.01,2013-02-06 00:00:00,
2013-02-05 19:03:00,53.2,34.5,30.00,NNE,24,7.0,14.0,49,0.00,,SCT,0.03,0.00,VWS V14.01,2013-02-06 00:03:00,
2013-02-05 19:08:00,53.1,34.5,30.00,NE,34,9.0,14.0,49,0.00,,SCT,0.03,0.00,VWS V14.01,2013-02-06 00:08:00,
2013-02-05 19:13:00,53.0,34.9,30.01,NNE,32,12.0,14.0,50,0.00,,SCT,0.03,0.00,VWS V14.01,2013-02-06 00:13:00,
2013-02-05 19:18:00,53.0,34.9,30.01,NE,37,9.0,14.0,50,0.00,,SCT,0.03,0.00,VWS V14.01,2013-02-06 00:18:00,
2013-02-05 19:23:00,52.8,34.7,30.01,NNE,28,6.0,14.0,50,0.00,,SCT,0.03,0.00,VWS V14.01,2013-02-06 00:23:00,
2013-02-05 19:28:00,52.5,34.4,30.01,North,11,4.0,14.0,50,0.00,,SCT,0.03,0.00,VWS V14.01,2013-02-06 00:28:00,
2013-02-05 19:33:00,52.3,34.7,30.01,NNE,24,4.0,14.0,51,0.00,,SCT,0.03,0.00,VWS V14.01,2013-02-06 00:33:00,
2013-02-05 19:38:00,51.9,34.4,30.01,NNE,20,3.0,14.0,51,0.00,,SCT,0.03,0.00,VWS V14.01,2013-02-06 00:38:00,
2013-02-05 19:43:00,51.6,34.6,30.02,NNE,15,3.0,14.0,52,0.00,,SCT,0.03,0.00,VWS V14.01,2013-02-06 00:43:00,
2013-02-05 19:48:00,51.4,34.9,30.02,North,10,6.0,14.0,53,0.00,,SCT,0.03,0.00,VWS V14.01,2013-02-06 00:48:00,
2013-02-05 19:53:00,51.2,34.7,30.02,North,9,5.0,14.0,53,0.00,,SCT,0.03,0.00,VWS V14.01,2013-02-06 00:53:00,
2013-02-05 19:58:00,51.0,35.0,30.02,NNE,19,6.0,8.0,54,0.00,,SCT,0.03,0.00,VWS V14.01,2013-02-06 00:58:00,
2013-02-05 20:00:00,51.2,34.7,30.02,NNE,22,4.0,14.0,53,0.00,,SCT,0.03,0.00,VWS V14.01,2013-02-06 01:00:00,
2013-02-05 20:03:00,50.9,34.9,30.02,NNE,19,5.0,8.0,54,0.00,,SCT,0.03,0.00,VWS V14.01,2013-02-06 01:03:00,
2013-02-05 20:08:00,50.7,34.7,30.02,NNE,19,5.0,8.0,54,0.00,,SCT,0.03,0.00,VWS V14.01,2013-02-06 01:08:00,
2013-02-05 20:13:00,50.5,35.0,30.02,NNE,22,3.0,8.0,55,0.00,,SCT,0.03,0.00,VWS V14.01,2013-02-06 01:13:00,
2013-02-05 20:18:00,50.4,34.9,30.02,North,5,4.0,8.0,55,0.00,,SCT,0.03,0.00,VWS V14.01,2013-02-06 01:18:00,
2013-02-05 20:23:00,50.3,34.8,30.02,North,5,3.0,8.0,55,0.00,,SCT,0.03,0.00,VWS V14.01,2013-02-06 01:23:00,
2013-02-05 20:28:00,50.3,34.8,30.02,North,5,2.0,8.0,55,0.00,,SCT,0.03,0.00,VWS V14.01,2013-02-06 01:28:00,
2013-02-05 20:33:00,50.3,34.8,30.02,North,350,6.0,8.0,55,0.00,,SCT,0.03,0.00,VWS V14.01,2013-02-06 01:33:00,
2013-02-05 20:38:00,50.4,34.9,30.01,NNE,12,6.0,8.0,55,0.00,,SCT,0.03,0.00,VWS V14.01,2013-02-06 01:38:00,
2013-02-05 20:43:00,50.4,34.9,30.01,NNE,12,4.0,8.0,55,0.00,,SCT,0.03,0.00,VWS V14.01,2013-02-06 01:43:00,
2013-02-05 20:48:00,50.3,34.8,30.01,NNE,14,6.0,8.0,55,0.00,,SCT,0.03,0.00,VWS V14.01,2013-02-06 01:48:00,
2013-02-05 20:53:00,50.2,35.1,30.01,NNE,17,4.0,8.0,56,0.00,,SCT,0.03,0.00,VWS V14.01,2013-02-06 01:53:00,
2013-02-05 20:58:00,50.1,35.0,30.02,NNE,22,6.0,7.0,56,0.00,,SCT,0.03,0.00,VWS V14.01,2013-02-06 01:58:00,
2013-02-05 21:00:00,50.2,35.1,30.01,NNE,12,5.0,8.0,56,0.00,,SCT,0.03,0.00,VWS V14.01,2013-02-06 02:00:00,
2013-02-05 21:03:00,50.1,35.0,30.02,NNE,17,7.0,7.0,56,0.00,,SCT,0.03,0.00,VWS V14.01,2013-02-06 02:03:00,
2013-02-05 21:08:00,50.1,35.0,30.02,NNE,30,4.0,7.0,56,0.00,,SCT,0.03,0.00,VWS V14.01,2013-02-06 02:08:00,
2013-02-05 21:13:00,50.0,35.4,30.02,NNE,14,5.0,7.0,57,0.00,,SCT,0.03,0.00,VWS V14.01,2013-02-06 02:13:00,
2013-02-05 21:18:00,49.8,35.2,30.02,NNE,14,2.0,7.0,57,0.00,,SCT,0.03,0.00,VWS V14.01,2013-02-06 02:18:00,
2013-02-05 21:23:00,49.6,35.0,30.02,NNE,21,3.0,7.0,57,0.00,,SCT,0.03,0.00,VWS V14.01,2013-02-06 02:23:00,
2013-02-05 21:28:00,49.5,34.9,30.03,NNE,20,4.0,7.0,57,0.00,,SCT,0.03,0.00,VWS V14.01,2013-02-06 02:28:00,
2013-02-05 21:33:00,49.4,35.3,30.03,NNE,17,4.0,7.0,58,0.00,,SCT,0.03,0.00,VWS V14.01,2013-02-06 02:33:00,
2013-02-05 21:38:00,49.4,35.3,30.03,NNE,14,3.0,7.0,58,0.00,,SCT,0.03,0.00,VWS V14.01,2013-02-06 02:38:00,
2013-02-05 21:43:00,49.4,35.3,30.03,NNE,13,4.0,7.0,58,0.00,,SCT,0.03,0.00,VWS V14.01,2013-02-06 02:43:00,
2013-02-05 21:48:00,49.4,35.3,30.03,North,9,2.0,7.0,58,0.00,,SCT,0.03,0.00,VWS V14.01,2013-02-06 02:48:00,
2013-02-05 21:53:00,49.4,35.3,30.03,North,9,4.0,7.0,58,0.00,,SCT,0.03,0.00,VWS V14.01,2013-02-06 02:53:00,
2013-02-05 21:58:00,49.4,35.3,30.03,North,5,0.0,4.0,58,0.00,,SCT,0.03,0.00,VWS V14.01,2013-02-06 02:58:00,
2013-02-05 22:00:00,49.4,35.3,30.03,North,5,3.0,7.0,58,0.00,,SCT,0.03,0.00,VWS V14.01,2013-02-06 03:00:00,
2013-02-05 22:03:00,49.4,35.3,30.03,North,360,2.0,5.0,58,0.00,,SCT,0.03,0.00,VWS V14.01,2013-02-06 03:03:00,
2013-02-05 22:08:00,49.4,35.7,30.03,NNE,12,2.0,5.0,59,0.00,,SCT,0.03,0.00,VWS V14.01,2013-02-06 03:08:00,
2013-02-05 22:13:00,49.4,35.7,30.03,North,5,4.0,5.0,59,0.00,,SCT,0.03,0.00,VWS V14.01,2013-02-06 03:13:00,
2013-02-05 22:18:00,49.3,35.6,30.03,NNE,13,3.0,6.0,59,0.00,,SCT,0.03,0.00,VWS V14.01,2013-02-06 03:18:00,
2013-02-05 22:23:00,49.2,35.5,30.03,NNE,13,4.0,6.0,59,0.00,,SCT,0.03,0.00,VWS V14.01,2013-02-06 03:23:00,
2013-02-05 22:28:00,49.0,35.3,30.03,North,5,3.0,6.0,59,0.00,,SCT,0.03,0.00,VWS V14.01,2013-02-06 03:28:00,
2013-02-05 22:33:00,49.0,35.3,30.04,NNE,16,5.0,6.0,59,0.00,,SCT,0.03,0.00,VWS V14.01,2013-02-06 03:33:00,
2013-02-05 22:38:00,48.9,35.6,30.04,NNE,20,2.0,7.0,60,0.00,,SCT,0.03,0.00,VWS V14.01,2013-02-06 03:38:00,
2013-02-05 22:43:00,48.7,35.5,30.04,North,5,1.0,7.0,60,0.00,,SCT,0.03,0.00,VWS V14.01,2013-02-06 03:43:00,
2013-02-05 22:48:00,48.4,35.6,30.04,NNE,12,1.0,7.0,61,0.00,,SCT,0.03,0.00,VWS V14.01,2013-02-06 03:48:00,
2013-02-05 22:53:00,47.8,35.0,30.04,NNE,12,0.0,7.0,61,0.00,,SCT,0.03,0.00,VWS V14.01,2013-02-06 03:53:00,
2013-02-05 22:58:00,47.5,35.1,30.04,NNE,22,1.0,4.0,62,0.00,,SCT,0.03,0.00,VWS V14.01,2013-02-06 03:58:00,
2013-02-05 23:00:00,47.8,35.0,30.04,NNE,13,1.0,7.0,61,0.00,,SCT,0.03,0.00,VWS V14.01,2013-02-06 04:00:00,
2013-02-05 23:03:00,47.3,35.4,30.04,NNE,26,2.0,4.0,63,0.00,,SCT,0.03,0.00,VWS V14.01,2013-02-06 04:03:00,
2013-02-05 23:08:00,47.1,35.2,30.04,NNE,24,2.0,4.0,63,0.00,,SCT,0.03,0.00,VWS V14.01,2013-02-06 04:08:00,
2013-02-05 23:13:00,46.7,34.4,30.04,NNE,28,3.0,4.0,62,0.00,,SCT,0.03,0.00,VWS V14.01,2013-02-06 04:13:00,
2013-02-05 23:18:00,46.3,34.8,30.04,NNE,15,3.0,4.0,64,0.00,,SCT,0.03,0.00,VWS V14.01,2013-02-06 04:18:00,
2013-02-05 23:23:00,46.2,35.1,30.04,North,11,2.0,4.0,65,0.00,,SCT,0.03,0.00,VWS V14.01,2013-02-06 04:23:00,
2013-02-05 23:28:00,46.0,35.3,30.04,North,5,4.0,5.0,66,0.00,,SCT,0.03,0.00,VWS V14.01,2013-02-06 04:28:00,
2013-02-05 23:33:00,46.4,35.3,30.03,North,5,4.0,7.0,65,0.00,,SCT,0.03,0.00,VWS V14.01,2013-02-06 04:33:00,
2013-02-05 23:38:00,46.8,35.7,30.04,NNE,15,5.0,7.0,65,0.00,,SCT,0.03,0.00,VWS V14.01,2013-02-06 04:38:00,
2013-02-05 23:43:00,47.0,35.5,30.04,NNE,17,3.0,7.0,64,0.00,,SCT,0.03,0.00,VWS V14.01,2013-02-06 04:43:00,
2013-02-05 23:48:00,46.7,35.2,30.04,NNE,28,5.0,7.0,64,0.00,,SCT,0.03,0.00,VWS V14.01,2013-02-06 04:48:00,
2013-02-05 23:53:00,46.7,35.6,30.04,NNE,20,5.0,7.0,65,0.00,,SCT,0.03,0.00,VWS V14.01,2013-02-06 04:53:00,
2013-02-05 23:58:00,46.5,35.4,30.05,NNE,13,3.0,5.0,65,0.00,,SCT,0.00,0.00,VWS V14.01,2013-02-06 04:58:00,